Latest Weather Observations for Perisher Valley

IDN60901

Issued at 6:02 pm EST Sunday 22 May 2022 (issued every 10 minutes, with the page automatically refreshed every 10 minutes)

About weather observations | Map of Canberra area stations | Latest observations for Canberra area | Other Formats
Station Details ID: 071075 Name: PERISHER VALLEY AWS Lat: -36.41 Lon: 148.41 Height: 1738.0 m
Data from the previous 72 hours. | See also: Recent months at Perisher Valley
Date/Time
EST
Temp
°C
App
Temp
°C
Dew
Point
°C
Rel
Hum
%
Delta-T
°C
Wind Press
QNH
hPa
Press
MSL
hPa
Rain since
9am
mm
Dir  Spd
km/h
Gust
km/h
Spd
kts
Gust
kts
22/06:00pm -1.0 -4.2 -3.4 84 0.8 WSW 4 6 2 3 - - 0.0
22/05:30pm 1.2 -1.7 -1.4 83 1.0 WNW 4 9 2 5 - - 0.0
22/05:00pm 1.4 -1.7 -2.4 76 1.6 WSW 4 6 2 3 - - 0.0
22/04:30pm 3.6 0.9 -2.6 64 2.5 NE 2 6 1 3 - - 0.0
22/04:00pm 5.0 1.9 -2.3 59 3.0 ESE 4 11 2 6 - - 0.0
22/03:30pm 6.8 3.4 -2.1 53 3.7 E 6 13 3 7 - - 0.0
22/03:00pm 7.7 4.4 -1.3 53 3.8 ESE 6 13 3 7 - - 0.0
22/02:30pm 7.3 3.7 -2.4 50 4.0 ESE 7 17 4 9 - - 0.0
22/02:00pm 7.6 4.1 -3.0 47 4.3 SE 6 15 3 8 - - 0.0
22/01:30pm 7.5 3.3 -3.9 44 4.6 SSE 9 19 5 10 - - 0.0
22/01:00pm 7.6 3.4 -4.2 43 4.7 SE 9 15 5 8 - - 0.0
22/12:30pm 8.8 5.0 -5.1 37 5.5 SSE 6 13 3 7 - - 0.0
22/12:00pm 8.3 4.3 -7.8 31 5.9 SSE 6 11 3 6 - - 0.0
22/11:30am 8.5 4.5 -8.1 30 6.1 ESE 6 9 3 5 - - 0.0
22/11:00am 7.8 3.5 -8.7 30 5.9 SE 7 13 4 7 - - 0.0
22/10:30am 8.0 4.0 -7.7 32 5.8 SE 6 11 3 6 - - 0.0
22/10:00am 8.2 5.0 -6.7 34 5.6 WNW 2 6 1 3 - - 0.0
22/09:30am 6.0 2.6 -5.3 44 4.3 WSW 4 7 2 4 - - 0.0
22/09:00am 4.3 0.9 -4.9 51 3.5 WSW 4 9 2 5 - - 0.0
22/08:30am 1.9 -1.2 -3.0 70 1.9 WSW 4 7 2 4 - - 0.0
22/08:00am -0.7 -3.3 -2.0 91 0.5 SW 2 6 1 3 - - 0.0
22/07:30am -2.7 -6.7 -5.2 83 0.7 SW 7 9 4 5 - - 0.0
22/07:00am -4.0 -7.9 -6.3 84 0.6 SW 6 9 3 5 - - 0.0
22/06:30am -4.4 -8.4 -7.3 80 0.7 SSW 6 7 3 4 - - 0.0
22/06:00am -4.3 -7.6 -8.2 74 1.0 WSW 2 7 1 4 - - 0.0
22/05:30am -4.9 -8.5 -7.3 83 0.6 WSW 4 6 2 3 - - 0.0
22/05:00am -4.5 -7.8 -8.1 76 0.9 WSW 2 6 1 3 - - 0.0
22/04:30am -4.2 -7.4 -7.4 78 0.8 SW 2 6 1 3 - - 0.0
22/04:00am -3.9 -7.1 -7.3 77 0.9 WSW 2 6 1 3 - - 0.0
22/03:30am -4.0 -7.1 -5.8 87 0.4 SW 2 4 1 2 - - 0.0
22/03:00am -3.7 -6.5 -7.3 76 1.0 CALM 0 2 0 1 - - 0.0
22/02:30am -3.9 -7.0 -6.0 85 0.5 WSW 2 4 1 2 - - 0.0
22/02:00am -3.5 -6.6 -6.4 80 0.8 SW 2 6 1 3 - - 0.0
22/01:30am -3.7 -6.8 -6.2 83 0.7 SW 2 6 1 3 - - 0.0
22/01:00am -4.3 -7.4 -6.3 86 0.5 WSW 2 4 1 2 - - 0.0
22/12:30am -3.8 -7.3 -6.6 81 0.8 SW 4 4 2 2 - - 0.0
22/12:00am -4.0 -7.8 -5.8 87 0.4 SW 6 7 3 4 - - 0.0
 
Date/Time
EST
Temp
°C
App
Temp
°C
Dew
Point
°C
Rel
Hum
%
Delta-T
°C
Wind Press
QNH
hPa
Press
MSL
hPa
Rain since
9am
mm
Dir  Spd
km/h
Gust
km/h
Spd
kts
Gust
kts
21/11:30pm -3.5 -6.5 -5.5 86 0.5 SW 2 6 1 3 - - 0.0
21/11:00pm -3.9 -7.0 -5.9 86 0.5 SW 2 6 1 3 - - 0.0
21/10:30pm -3.4 -6.4 -4.8 90 0.3 WSW 2 7 1 4 - - 0.0
21/10:00pm -2.9 -5.7 -3.2 98 0.0 WSW 2 4 1 2 - - 0.0
21/09:30pm -2.9 -6.0 -3.0 99 -0.1 SW 4 6 2 3 - - 0.0
21/09:00pm -2.4 -5.1 -2.4 100 0.0 WSW 2 6 1 3 - - 0.0
21/08:30pm -2.5 -4.8 -2.6 99 -0.1 CALM 0 4 0 2 - - 0.0
21/08:00pm -2.4 -4.8 -2.8 97 0.0 CALM 0 2 0 1 - - 0.0
21/07:30pm -1.7 -4.4 -2.1 97 0.1 SSW 2 6 1 3 - - 0.0
21/07:00pm -1.9 -4.6 -2.6 95 0.2 WSW 2 4 1 2 - - 0.0
21/06:30pm -1.4 -4.1 -2.5 92 0.3 SW 2 6 1 3 - - 0.0
21/06:00pm -0.9 -3.9 -1.7 94 0.3 SW 4 4 2 2 - - 0.0
21/05:30pm -0.2 -2.8 -1.5 91 0.5 SW 2 6 1 3 - - 0.0
21/05:00pm 0.5 -1.7 -1.4 87 0.8 CALM 0 2 0 1 - - 0.0
21/04:30pm 3.2 -0.2 -0.3 78 1.5 E 7 11 4 6 - - 0.0
21/04:00pm 4.2 0.2 0.7 78 1.5 ENE 11 17 6 9 - - 0.0
21/03:30pm 5.6 0.7 -0.2 66 2.5 ENE 15 20 8 11 - - 0.0
21/03:00pm 6.0 1.4 -1.4 59 3.1 ENE 13 19 7 10 - - 0.0
21/02:30pm 6.4 1.4 -4.1 47 4.1 E 13 17 7 9 - - 0.0
21/02:00pm 7.3 3.0 -4.4 43 4.6 SE 9 17 5 9 - - 0.0
21/01:30pm 7.8 3.5 -8.7 30 5.9 ESE 7 11 4 6 - - 0.0
21/01:00pm 8.8 5.0 -5.8 35 5.7 NE 6 11 3 6 - - 0.0
21/12:30pm 8.4 4.1 -5.1 38 5.3 E 9 13 5 7 - - 0.0
21/12:00pm 7.8 3.8 -5.3 39 5.1 E 7 15 4 8 - - 0.0
21/11:30am 7.5 3.5 -5.9 38 5.1 SE 7 13 4 7 - - 0.0
21/11:00am 7.8 3.3 -7.1 34 5.5 ENE 9 11 5 6 - - 0.0
21/10:30am 6.9 2.6 -9.0 31 5.6 ENE 7 11 4 6 - - 0.0
21/10:00am 6.2 3.1 -6.1 41 4.6 W 2 4 1 2 - - 0.0
21/09:30am 5.0 2.2 -3.5 54 3.3 SE 2 6 1 3 - - 0.0
21/09:00am 3.0 -0.1 -2.5 67 2.2 SW 4 7 2 4 - - 0.0
21/08:30am 1.1 -1.2 0.2 94 0.4 WSW 2 4 1 2 - - 0.0
21/08:00am -1.8 -5.0 -3.4 89 0.5 SW 4 7 2 4 - - 0.0
21/07:30am -3.8 -7.2 -5.5 88 0.4 SW 4 7 2 4 - - 0.0
21/07:00am -4.4 -7.8 -5.6 91 0.2 SW 4 6 2 3 - - 0.0
21/06:30am -4.3 -8.1 -5.4 92 0.2 WSW 6 7 3 4 - - 0.0
21/06:00am -4.2 -8.2 -5.3 92 0.2 SW 7 9 4 5 - - 0.0
21/05:30am -4.5 -8.3 -5.6 92 0.2 SW 6 7 3 4 - - 0.0
21/05:00am -4.2 -7.9 -5.0 94 0.1 SW 6 9 3 5 - - 0.0
21/04:30am -4.0 -7.7 -4.8 94 0.1 SW 6 9 3 5 - - 0.0
21/04:00am -4.0 -7.3 -4.7 95 0.1 SW 4 6 2 3 - - 0.0
21/03:30am -3.9 -7.2 -4.6 95 0.1 SW 4 6 2 3 - - 0.0
21/03:00am -3.6 -6.9 -4.1 96 0.0 SSW 4 6 2 3 - - 0.0
21/02:30am -3.6 -6.9 -4.0 97 0.0 SW 4 6 2 3 - - 0.0
21/02:00am -3.8 -6.7 -4.6 94 0.1 SW 2 4 1 2 - - 0.0
21/01:30am -3.1 -5.9 -3.6 96 0.0 SSW 2 9 1 5 - - 0.0
21/01:00am -1.8 -4.0 -1.8 100 0.0 CALM 0 2 0 1 - - 0.0
21/12:30am -1.3 -4.2 -1.3 100 0.0 SW 4 6 2 3 - - 0.0
21/12:00am -1.0 -3.9 -1.3 98 0.1 W 4 4 2 2 - - 0.0
 
Date/Time
EST
Temp
°C
App
Temp
°C
Dew
Point
°C
Rel
Hum
%
Delta-T
°C
Wind Press
QNH
hPa
Press
MSL
hPa
Rain since
9am
mm
Dir  Spd
km/h
Gust
km/h
Spd
kts
Gust
kts
20/11:30pm -0.2 -2.3 -0.5 98 0.1 CALM 0 4 0 2 - - 0.0
20/11:00pm 0.5 -2.2 0.2 98 0.1 N 4 9 2 5 - - 0.0
20/10:30pm 0.8 -1.4 0.8 100 0.0 NNW 2 13 1 7 - - 0.0
20/10:00pm 0.9 -1.7 0.9 100 0.0 NE 4 9 2 5 - - 0.0
20/09:30pm -0.6 -3.4 -0.6 100 0.0 NE 4 7 2 4 - - 0.0
20/09:00pm -1.3 -3.5 -1.3 100 0.0 CALM 0 2 0 1 - - 0.0
20/08:30pm -2.4 -4.7 -2.7 98 0.0 CALM 0 2 0 1 - - 0.0
20/08:00pm -2.7 -5.1 -3.1 97 0.0 CALM 0 4 0 2 - - 0.0
20/07:30pm -2.4 -4.8 -2.9 96 0.1 CALM 0 2 0 1 - - 0.0
20/07:00pm -2.2 -4.5 -2.7 96 0.1 CALM 0 0 0 0 - - 0.0
20/06:30pm -2.2 -5.3 -3.0 94 0.2 SW 4 6 2 3 - - 0.0
20/06:00pm -1.3 -3.6 -2.0 95 0.2 CALM 0 4 0 2 - - 0.0
20/05:30pm -0.6 -2.9 -2.5 87 0.7 CALM 0 2 0 1 - - 0.0
20/05:00pm 1.1 -1.8 -0.8 87 0.8 NNE 4 9 2 5 - - 0.0
20/04:30pm 2.0 -1.4 -0.7 82 1.1 NNE 7 15 4 8 - - 0.0
20/04:00pm 2.9 -0.6 -1.1 75 1.6 N 7 13 4 7 - - 0.0
20/03:30pm 3.9 0.4 -1.5 68 2.2 ENE 7 13 4 7 - - 0.0
20/03:00pm 5.4 2.1 -1.5 61 2.9 NE 6 9 3 5 - - 0.0
20/02:30pm 6.0 2.6 -0.9 61 2.9 NE 7 13 4 7 - - 0.0
20/02:00pm 6.3 3.3 -2.1 55 3.5 NE 4 7 2 4 - - 0.0
20/01:30pm 6.2 3.1 -2.7 53 3.6 NE 4 7 2 4 - - 0.0
20/01:00pm 5.8 2.8 -1.8 58 3.1 NE 4 7 2 4 - - 0.0
20/12:30pm 4.4 1.2 -0.6 70 2.1 ENE 6 7 3 4 - - 0.0
20/12:00pm 2.9 -0.4 -1.3 74 1.7 NE 6 7 3 4 - - 0.0
20/11:30am 1.8 -1.5 -1.1 81 1.2 NE 6 9 3 5 - - 0.0
20/11:00am 0.3 -3.1 -1.9 85 0.9 NE 6 11 3 6 - - 0.0
20/10:30am -1.2 -4.2 -2.0 94 0.2 NNE 4 9 2 5 - - 0.0
20/10:00am -1.6 -5.2 -2.3 95 0.2 NNE 7 11 4 6 - - 0.0
20/09:30am -1.1 -4.5 -1.9 94 0.3 NE 6 9 3 5 - - 0.0
20/09:00am -0.6 -3.9 -1.6 93 0.4 ENE 6 7 3 4 - - 0.0
20/08:30am -0.7 -4.1 -1.7 93 0.4 NE 6 11 3 6 - - 0.0
20/08:00am -2.5 -5.3 -3.5 93 0.2 W 2 6 1 3 - - 0.0
20/07:30am -4.9 -8.7 -5.9 93 0.1 SW 6 9 3 5 - - 0.0
20/07:00am -4.6 -8.0 -5.1 96 0.0 SW 4 6 2 3 - - 0.0
20/06:30am -3.6 -6.8 -3.6 100 0.0 WNW 4 7 2 4 - - 0.0
20/06:00am -5.0 -8.1 -5.7 95 0.0 WSW 2 6 1 3 - - 0.0
20/05:30am -5.2 -9.3 -6.2 93 0.1 SW 7 11 4 6 - - 0.0
20/05:00am -4.7 -8.1 -5.7 93 0.1 WSW 4 7 2 4 - - 0.0
20/04:30am -4.4 -8.2 -5.5 92 0.2 SW 6 9 3 5 - - 0.0
20/04:00am -3.1 -6.7 -3.9 94 0.1 WSW 6 13 3 7 - - 0.0
20/03:30am -2.6 -6.1 -3.1 96 0.1 WSW 6 11 3 6 - - 0.0
20/03:00am -2.9 -6.4 -3.2 98 0.0 WSW 6 11 3 6 - - 0.0
20/02:30am -2.7 -6.3 -3.4 95 0.1 WSW 6 15 3 8 - - 0.0
20/02:00am -1.8 -5.7 -4.6 81 0.9 SW 7 15 4 8 - - 0.0
20/01:30am -2.3 -6.6 -5.3 80 0.9 SW 9 20 5 11 - - 0.0
20/01:00am -1.9 -6.1 -4.1 85 0.7 SW 9 17 5 9 - - 0.0
20/12:30am -2.4 -6.2 -3.5 92 0.3 WSW 7 13 4 7 - - 0.0
20/12:00am -1.8 -6.6 -2.8 93 0.3 SW 13 26 7 14 - - 0.0
 
Date/Time
EST
Temp
°C
App
Temp
°C
Dew
Point
°C
Rel
Hum
%
Delta-T
°C
Wind Press
QNH
hPa
Press
MSL
hPa
Rain since
9am
mm
Dir  Spd
km/h
Gust
km/h
Spd
kts
Gust
kts
19/11:30pm -1.6 -5.3 -2.6 93 0.3 SW 7 17 4 9 - - 0.0
19/11:00pm -1.5 -5.6 -2.8 91 0.4 SW 9 22 5 12 - - 0.0
19/10:30pm -1.5 -5.2 -2.8 91 0.4 SW 7 22 4 12 - - 0.0
19/10:00pm -1.5 -5.9 -2.6 92 0.3 SW 11 20 6 11 - - 0.0
19/09:30pm -1.9 -6.0 -3.0 92 0.3 SW 9 20 5 11 - - 0.0
19/09:00pm -2.1 -5.7 -3.4 91 0.4 SSW 6 13 3 7 - - 0.0
19/08:30pm -1.6 -5.6 -2.6 93 0.3 SSW 9 17 5 9 - - 0.0
19/08:00pm -1.1 -5.6 -3.0 87 0.7 S 11 17 6 9 - - 0.0
19/07:30pm -0.4 -4.3 -6.2 65 2.0 SW 6 13 3 7 - - 0.0
19/07:00pm 0.7 -4.1 -5.9 61 2.4 SW 11 17 6 9 - - 0.0
19/06:30pm 1.0 -3.8 -5.9 60 2.5 SW 11 22 6 12 - - 0.0

Latest Capital City Observations: Canberra | Sydney | Melbourne | Brisbane | Adelaide | Perth | Hobart | Darwin

Other formats

Comma delimited format used in spreadsheet applications
http://www.bom.gov.au/fwo/IDN60903/IDN60903.94915.axf

JavaScript Object Notation format (JSON) in row-major order
http://www.bom.gov.au/fwo/IDN60903/IDN60903.94915.json

Data quality

Most of these data are generated automatically and are frequently updated. Quality checks on data are not normally performed. It is possible for incorrect values to appear. Refer to information at About Latest Weather Observations and please check the disclaimer before using these data.